createdAt,value
2018-05-03T00:00:08.373Z,85.15
2018-05-03T00:01:18.348Z,84.29
2018-05-03T00:02:28.344Z,84.67
2018-05-03T00:03:38.320Z,84.58
2018-05-03T00:04:48.282Z,84.06
2018-05-03T00:05:57.982Z,84.34
2018-05-03T00:07:07.690Z,84.1
2018-05-03T00:08:17.658Z,84.63
2018-05-03T00:09:27.718Z,84.34
2018-05-03T00:10:37.690Z,84.53
2018-05-03T00:11:47.399Z,84.72
2018-05-03T00:12:57.367Z,84.72
2018-05-03T00:14:07.335Z,85.3
2018-05-03T00:15:17.314Z,86.63
2018-05-03T00:16:27.279Z,86.82
2018-05-03T00:17:36.979Z,86.92
2018-05-03T00:18:46.175Z,87.11
2018-05-03T00:19:56.153Z,86.82
2018-05-03T00:21:05.860Z,87.4
2018-05-03T00:22:15.837Z,87.02
2018-05-03T00:23:25.805Z,87.02
2018-05-03T00:24:35.775Z,86.82
2018-05-03T00:25:45.753Z,87.02
2018-05-03T00:26:55.465Z,87.97
2018-05-03T00:28:05.175Z,88.07
2018-05-03T00:29:15.134Z,88.16
2018-05-03T00:30:24.839Z,87.97
2018-05-03T00:31:34.292Z,87.78
2018-05-03T00:32:43.742Z,88.07
2018-05-03T00:33:53.702Z,88.35
2018-05-03T00:35:03.450Z,88.07
2018-05-03T00:36:13.429Z,87.87
2018-05-03T00:37:22.965Z,87.68
2018-05-03T00:38:32.682Z,87.4
2018-05-03T00:39:42.207Z,87.59
2018-05-03T00:40:52.201Z,87.83
2018-05-03T00:42:02.166Z,87.16
2018-05-03T00:43:11.879Z,87.45
2018-05-03T00:44:21.857Z,87.49
2018-05-03T00:45:31.825Z,87.93
2018-05-03T00:46:41.798Z,87.45
2018-05-03T00:47:51.769Z,87.4
2018-05-03T00:49:01.869Z,87.68
2018-05-03T00:50:11.601Z,87.45
2018-05-03T00:51:21.309Z,87.45
2018-05-03T00:52:31.277Z,87.64
2018-05-03T00:53:41.261Z,87.4
2018-05-03T00:54:51.236Z,86.82
2018-05-03T00:56:01.202Z,87.07
2018-05-03T00:57:11.185Z,86.98
2018-05-03T00:58:21.151Z,87.02
2018-05-03T00:59:31.121Z,87.02
2018-05-03T01:00:41.120Z,86.92
2018-05-03T01:01:50.931Z,87.02
2018-05-03T01:03:00.441Z,86.98
2018-05-03T01:04:10.158Z,87.21
2018-05-03T01:05:20.129Z,86.92
2018-05-03T01:06:29.839Z,86.92
2018-05-03T01:07:39.558Z,87.02
2018-05-03T01:08:49.281Z,86.92
2018-05-03T01:09:58.992Z,87.11
2018-05-03T01:11:08.961Z,87.11
2018-05-03T01:12:18.935Z,86.82
2018-05-03T01:13:28.896Z,87.59
2018-05-03T01:14:38.867Z,87.3
2018-05-03T01:15:48.841Z,87.78
2018-05-03T01:16:58.547Z,87.87
2018-05-03T01:18:07.994Z,88.07
2018-05-03T01:19:17.702Z,88.16
2018-05-03T01:20:27.676Z,88.98
2018-05-03T01:21:37.670Z,88.69
2018-05-03T01:22:47.658Z,88.88
2018-05-03T01:23:57.372Z,89.26
2018-05-03T01:25:07.089Z,88.98
2018-05-03T01:26:17.059Z,88.69
2018-05-03T01:27:27.026Z,89.07
2018-05-03T01:28:36.741Z,89.07
2018-05-03T01:29:46.705Z,89.17
2018-05-03T01:30:56.153Z,88.98
2018-05-03T01:32:06.128Z,89.45
2018-05-03T01:33:16.106Z,88.88
2018-05-03T01:34:26.082Z,88.98
2018-05-03T01:35:35.793Z,88.59
2018-05-03T01:36:45.763Z,88.78
2018-05-03T01:37:55.729Z,88.31
2018-05-03T01:39:05.699Z,88.98
2018-05-03T01:40:15.665Z,88.5
2018-05-03T01:41:25.649Z,88.98
2018-05-03T01:42:35.361Z,88.78
2018-05-03T01:43:45.340Z,88.59
2018-05-03T01:44:55.061Z,88.98
2018-05-03T01:46:05.023Z,88.98
2018-05-03T01:47:14.987Z,88.69
2018-05-03T01:48:24.957Z,88.59
2018-05-03T01:49:35.003Z,88.78
2018-05-03T01:50:44.746Z,88.5
2018-05-03T01:51:54.451Z,88.12
2018-05-03T01:53:04.431Z,88.59
2018-05-03T01:54:14.397Z,88.12
2018-05-03T01:55:24.361Z,88.4
2018-05-03T01:56:34.070Z,88.5
2018-05-03T01:57:44.032Z,88.31
2018-05-03T01:58:54.011Z,88.21
2018-05-03T02:00:03.997Z,88.12
2018-05-03T02:01:13.969Z,88.12
2018-05-03T02:02:23.946Z,88.16
2018-05-03T02:03:33.405Z,88.12
2018-05-03T02:04:43.365Z,88.54
2018-05-03T02:05:53.335Z,87.97
2018-05-03T02:07:03.320Z,88.02
2018-05-03T02:08:13.048Z,88.02
2018-05-03T02:09:23.084Z,88.07
2018-05-03T02:10:32.729Z,87.83
2018-05-03T02:11:42.714Z,88.07
2018-05-03T02:12:52.166Z,87.87
2018-05-03T02:14:01.887Z,87.49
2018-05-03T02:15:11.613Z,86.82
2018-05-03T02:16:21.581Z,87.11
2018-05-03T02:17:31.536Z,87.21
2018-05-03T02:18:41.248Z,87.02
2018-05-03T02:19:51.294Z,85.87
2018-05-03T02:21:01.258Z,86.06
2018-05-03T02:22:10.733Z,87.11
2018-05-03T02:23:20.708Z,86.35
2018-05-03T02:24:30.681Z,86.16
2018-05-03T02:25:40.638Z,86.16
2018-05-03T02:26:50.596Z,86.06
2018-05-03T02:28:00.298Z,86.16
2018-05-03T02:29:10.292Z,86.16
2018-05-03T02:30:20.267Z,86.06
2018-05-03T02:31:29.993Z,86.06
2018-05-03T02:32:39.980Z,86.73
2018-05-03T02:33:49.977Z,86.44
2018-05-03T02:34:59.965Z,86.63
2018-05-03T02:36:09.945Z,86.25
2018-05-03T02:37:19.928Z,85.87
2018-05-03T02:38:29.902Z,85.87
2018-05-03T02:39:39.608Z,86.06
2018-05-03T02:40:49.594Z,87.02
2018-05-03T02:41:59.568Z,86.82
2018-05-03T02:43:09.547Z,86.82
2018-05-03T02:44:19.255Z,87.02
2018-05-03T02:45:29.229Z,87.02
2018-05-03T02:46:39.020Z,87.02
2018-05-03T02:47:49.014Z,88.07
2018-05-03T02:48:58.739Z,88.73
2018-05-03T02:50:08.187Z,89.02
2018-05-03T02:51:17.902Z,89.45
2018-05-03T02:52:27.600Z,89.93
2018-05-03T02:53:37.339Z,89.74
2018-05-03T02:54:47.323Z,90.5
2018-05-03T02:55:57.338Z,90.5
2018-05-03T02:57:07.305Z,89.93
2018-05-03T02:58:17.272Z,90.59
2018-05-03T02:59:27.317Z,90.12
2018-05-03T03:00:37.304Z,90.79
2018-05-03T03:01:47.293Z,91.17
2018-05-03T03:02:57.000Z,90.79
2018-05-03T03:04:06.716Z,90.88
2018-05-03T03:05:16.677Z,91.55
2018-05-03T03:06:26.652Z,91.83
2018-05-03T03:07:36.614Z,92.5
2018-05-03T03:08:46.596Z,92.88
2018-05-03T03:09:56.306Z,93.55
2018-05-03T03:11:06.274Z,93.36
2018-05-03T03:12:15.467Z,93.46
2018-05-03T03:13:25.434Z,93.55
2018-05-03T03:14:35.409Z,94.41
2018-05-03T03:15:45.119Z,94.6
2018-05-03T03:16:55.080Z,94.89
2018-05-03T03:18:05.056Z,95.08
2018-05-03T03:19:15.018Z,94.89
2018-05-03T03:20:24.979Z,94.41
2018-05-03T03:21:34.678Z,94.51
2018-05-03T03:22:44.393Z,94.7
2018-05-03T03:23:54.092Z,94.41
2018-05-03T03:25:03.807Z,94.79
2018-05-03T03:26:13.513Z,94.89
2018-05-03T03:27:23.226Z,95.17
2018-05-03T03:28:32.938Z,95.46
2018-05-03T03:29:42.642Z,95.65
2018-05-03T03:30:52.098Z,96.03
2018-05-03T03:32:02.081Z,96.22
2018-05-03T03:33:12.075Z,96.98
2018-05-03T03:34:21.779Z,97.08
2018-05-03T03:35:31.764Z,96.75
2018-05-03T03:36:41.734Z,97.22
2018-05-03T03:37:51.704Z,97.61
2018-05-03T03:39:01.420Z,97.8
2018-05-03T03:40:11.391Z,97.51
2018-05-03T03:41:21.356Z,98.18
2018-05-03T03:42:31.355Z,98.27
2018-05-03T03:43:41.061Z,98.75
2018-05-03T03:44:51.020Z,99.51
2018-05-03T03:46:00.993Z,99.32
2018-05-03T03:47:10.692Z,99.8
2018-05-03T03:48:20.661Z,99.99
2018-05-03T03:49:30.628Z,99.99
2018-05-03T03:50:40.606Z,99.99
2018-05-03T03:51:50.583Z,99.99
2018-05-03T03:53:00.539Z,99.99
2018-05-03T03:54:10.529Z,99.99
2018-05-03T03:55:20.241Z,99.99
2018-05-03T03:56:30.220Z,99.99
2018-05-03T03:57:39.930Z,99.99
2018-05-03T03:58:49.913Z,99.99
2018-05-03T03:59:59.629Z,99.99
2018-05-03T04:01:09.338Z,99.99
2018-05-03T04:02:19.049Z,99.99
2018-05-03T04:03:29.017Z,99.84
2018-05-03T04:04:38.994Z,99.99
2018-05-03T04:05:48.695Z,99.99
2018-05-03T04:06:58.403Z,99.99
2018-05-03T04:08:08.377Z,99.99
2018-05-03T04:09:18.349Z,99.46
2018-05-03T04:10:27.632Z,99.18
2018-05-03T04:11:37.602Z,99.37
2018-05-03T04:12:47.313Z,99.04
2018-05-03T04:13:57.293Z,98.22
2018-05-03T04:15:07.286Z,97.99
2018-05-03T04:16:16.993Z,97.89
2018-05-03T04:17:26.972Z,97.7
2018-05-03T04:18:36.940Z,97.61
2018-05-03T04:19:46.912Z,97.99
2018-05-03T04:20:56.913Z,97.7
2018-05-03T04:22:06.985Z,97.32
2018-05-03T04:23:16.782Z,97.41
2018-05-03T04:24:26.754Z,97.41
2018-05-03T04:25:36.829Z,97.22
2018-05-03T04:26:46.799Z,97.61
2018-05-03T04:27:56.792Z,97.41
2018-05-03T04:29:06.522Z,97.22
2018-05-03T04:30:16.487Z,97.51
2018-05-03T04:31:26.201Z,97.41
2018-05-03T04:32:36.180Z,97.03
2018-05-03T04:33:46.147Z,96.65
2018-05-03T04:34:56.109Z,96.17
2018-05-03T04:36:06.084Z,96.17
2018-05-03T04:37:16.065Z,95.51
2018-05-03T04:38:25.770Z,95.51
2018-05-03T04:39:35.745Z,96.08
2018-05-03T04:40:45.454Z,95.56
2018-05-03T04:41:55.424Z,95.32
2018-05-03T04:43:05.141Z,95.08
2018-05-03T04:44:14.854Z,95.22
2018-05-03T04:45:25.047Z,95.08
2018-05-03T04:46:34.759Z,94.7
2018-05-03T04:47:44.486Z,94.51
2018-05-03T04:48:54.458Z,94.6
2018-05-03T04:50:04.436Z,94.22
2018-05-03T04:51:14.135Z,94.12
2018-05-03T04:52:24.127Z,94.12
2018-05-03T04:53:34.105Z,94.41
2018-05-03T04:54:44.095Z,94.6
2018-05-03T04:55:54.059Z,94.41
2018-05-03T04:57:03.787Z,94.89
2018-05-03T04:58:13.753Z,93.84
2018-05-03T04:59:23.736Z,94.12
2018-05-03T05:00:33.451Z,94.6
2018-05-03T05:01:43.429Z,94.6
2018-05-03T05:02:53.411Z,95.17
2018-05-03T05:04:03.388Z,94.98
2018-05-03T05:05:13.099Z,95.27
2018-05-03T05:06:23.083Z,95.56
2018-05-03T05:07:32.821Z,95.37
2018-05-03T05:08:42.811Z,95.27
2018-05-03T05:09:52.785Z,95.27
2018-05-03T05:11:02.778Z,94.79
2018-05-03T05:12:12.748Z,95.27
2018-05-03T05:13:22.737Z,95.56
2018-05-03T05:14:32.452Z,95.37
2018-05-03T05:15:42.430Z,95.27
2018-05-03T05:16:52.387Z,95.08
2018-05-03T05:18:02.281Z,95.27
2018-05-03T05:19:12.272Z,94.79
2018-05-03T05:20:22.256Z,94.79
2018-05-03T05:21:32.254Z,95.17
2018-05-03T05:22:42.254Z,94.89
2018-05-03T05:23:52.237Z,94.6
2018-05-03T05:25:01.945Z,94.22
2018-05-03T05:26:11.907Z,93.93
2018-05-03T05:27:21.879Z,93.55
2018-05-03T05:28:31.590Z,94.51
2018-05-03T05:29:41.570Z,94.98
2018-05-03T05:30:51.669Z,94.41
2018-05-03T05:32:01.393Z,94.7
2018-05-03T05:33:11.397Z,94.41
2018-05-03T05:34:21.404Z,94.89
2018-05-03T05:35:31.124Z,94.22
2018-05-03T05:36:40.832Z,94.41
2018-05-03T05:37:50.809Z,94.32
2018-05-03T05:39:00.970Z,93.84
2018-05-03T05:40:10.698Z,93.84
2018-05-03T05:41:20.665Z,94.03
2018-05-03T05:42:30.131Z,93.74
2018-05-03T05:43:40.104Z,93.36
2018-05-03T05:44:50.150Z,93.65
2018-05-03T05:46:00.126Z,92.79
2018-05-03T05:47:10.127Z,93.65
2018-05-03T05:48:19.836Z,93.36
2018-05-03T05:49:29.822Z,92.5
2018-05-03T05:50:39.797Z,93.36
2018-05-03T05:51:49.260Z,92.69
2018-05-03T05:52:59.239Z,91.17
2018-05-03T05:54:09.232Z,91.27
2018-05-03T05:55:18.945Z,91.64
2018-05-03T05:56:28.921Z,91.69
2018-05-03T05:57:39.004Z,90.93
2018-05-03T05:58:48.969Z,91.78
2018-05-03T05:59:58.952Z,91.69
2018-05-03T06:01:08.959Z,89.69
2018-05-03T06:02:18.926Z,89.12
2018-05-03T06:03:28.640Z,88.83
2018-05-03T06:04:38.617Z,88.16
2018-05-03T06:05:48.340Z,89.02
2018-05-03T06:06:58.329Z,89.4
2018-05-03T06:08:08.326Z,87.54
2018-05-03T06:09:17.773Z,85.58
2018-05-03T06:10:27.982Z,86.2
2018-05-03T06:11:37.634Z,85.53
2018-05-03T06:12:47.638Z,84.48
2018-05-03T06:13:57.692Z,84.1
2018-05-03T06:15:07.695Z,83.14
2018-05-03T06:16:17.696Z,82.57
2018-05-03T06:17:27.691Z,82.52
2018-05-03T06:18:37.432Z,81.95
2018-05-03T06:19:47.150Z,82.81
2018-05-03T06:20:56.886Z,80.99
2018-05-03T06:22:06.870Z,81.09
2018-05-03T06:23:16.849Z,79.85
2018-05-03T06:24:26.903Z,78.89
2018-05-03T06:25:36.870Z,78.6
2018-05-03T06:26:46.922Z,78.45
2018-05-03T06:27:56.955Z,78.64
2018-05-03T06:29:06.957Z,77.3
2018-05-03T06:30:16.694Z,77.21
2018-05-03T06:31:26.687Z,77.59
2018-05-03T06:32:36.674Z,77.01
2018-05-03T06:33:46.667Z,76.92
2018-05-03T06:34:56.394Z,76.73
2018-05-03T06:36:06.141Z,76.45
2018-05-03T06:37:16.139Z,77.3
2018-05-03T06:38:26.197Z,76.92
2018-05-03T06:39:35.973Z,76.54
2018-05-03T06:40:45.972Z,74.95
2018-05-03T06:41:55.949Z,74.85
2018-05-03T06:43:05.679Z,74.85
2018-05-03T06:44:15.678Z,74.38
2018-05-03T06:45:25.755Z,75.52
2018-05-03T06:46:35.486Z,74.95
2018-05-03T06:47:45.544Z,74.28
2018-05-03T06:48:55.531Z,74.76
2018-05-03T06:50:05.272Z,73.33
2018-05-03T06:51:15.257Z,72.94
2018-05-03T06:52:24.974Z,72.12
2018-05-03T06:53:34.714Z,71.93
2018-05-03T06:54:44.695Z,71.73
2018-05-03T06:55:54.674Z,70.78
2018-05-03T06:57:04.765Z,71.55
2018-05-03T06:58:14.497Z,71.07
2018-05-03T06:59:24.512Z,70.78
2018-05-03T07:00:34.485Z,70.68
2018-05-03T07:01:44.528Z,69.25
2018-05-03T07:02:54.535Z,69.86
2018-05-03T07:04:04.688Z,69.38
2018-05-03T07:05:15.183Z,69.19
2018-05-03T07:06:24.907Z,69.09
2018-05-03T07:07:34.901Z,68.33
2018-05-03T07:08:44.951Z,67.69
2018-05-03T07:09:55.111Z,66.25
2018-05-03T07:11:05.111Z,65.11
2018-05-03T07:12:15.098Z,65.49
2018-05-03T07:13:24.855Z,65.01
2018-05-03T07:14:34.844Z,65.68
2018-05-03T07:15:44.836Z,65.49
2018-05-03T07:16:54.824Z,66.25
2018-05-03T07:18:04.549Z,65.11
2018-05-03T07:19:14.543Z,65.97
2018-05-03T07:20:24.527Z,66.06
2018-05-03T07:21:34.548Z,65.11
2018-05-03T07:22:44.545Z,65.11
2018-05-03T07:23:54.480Z,64.82
2018-05-03T07:25:05.077Z,65.39
2018-05-03T07:26:15.112Z,65.68
2018-05-03T07:27:25.122Z,64.63
2018-05-03T07:28:34.878Z,64.63
2018-05-03T07:29:44.918Z,64.92
2018-05-03T07:30:54.894Z,64.05
2018-05-03T07:32:04.896Z,65.3
2018-05-03T07:33:15.125Z,63.96
2018-05-03T07:34:24.849Z,64.53
2018-05-03T07:35:34.816Z,65.11
2018-05-03T07:36:44.794Z,65.39
2018-05-03T07:37:54.783Z,64.53
2018-05-03T07:39:04.798Z,64.53
2018-05-03T07:40:14.807Z,64.92
2018-05-03T07:41:24.791Z,64.72
2018-05-03T07:42:34.783Z,62.46
2018-05-03T07:43:44.772Z,62.93
2018-05-03T07:44:54.796Z,62.65
2018-05-03T07:46:04.804Z,63.13
2018-05-03T07:47:14.569Z,63.22
2018-05-03T07:48:24.559Z,63.32
2018-05-03T07:49:34.837Z,63.7
2018-05-03T07:50:44.299Z,63.32
2018-05-03T07:51:54.016Z,63.6
2018-05-03T07:53:03.486Z,63.7
2018-05-03T07:54:13.198Z,63.06
2018-05-03T07:55:23.224Z,63.73
2018-05-03T07:56:32.800Z,64.4
2018-05-03T07:57:42.998Z,63.26
2018-05-03T07:58:52.798Z,63.16
2018-05-03T08:00:02.609Z,63.16
2018-05-03T08:01:12.095Z,62.96
2018-05-03T08:02:21.857Z,62.59
2018-05-03T08:03:31.074Z,63.8
2018-05-03T08:04:40.612Z,64.37
2018-05-03T08:05:50.340Z,66.86
2018-05-03T08:07:00.336Z,66.77
2018-05-03T08:08:10.338Z,66.29
2018-05-03T08:09:20.329Z,67.05
2018-05-03T08:10:30.385Z,65.81
2018-05-03T08:11:40.444Z,64.85
2018-05-03T08:12:50.166Z,64.09
2018-05-03T08:14:00.169Z,64.18
2018-05-03T08:15:10.179Z,64.56
2018-05-03T08:16:20.199Z,63.03
2018-05-03T08:17:30.197Z,63.06
2018-05-03T08:18:40.220Z,62.49
2018-05-03T08:19:50.214Z,61.53
2018-05-03T08:21:00.199Z,61.53
2018-05-03T08:22:10.174Z,61.91
2018-05-03T08:23:19.935Z,62.39
2018-05-03T08:24:29.966Z,62.3
2018-05-03T08:25:39.721Z,62.59
2018-05-03T08:26:49.733Z,61.15
2018-05-03T08:27:59.728Z,60.38
2018-05-03T08:29:10.118Z,61.46
2018-05-03T08:30:20.125Z,60.89
2018-05-03T08:31:30.398Z,60.6
2018-05-03T08:32:40.399Z,60.25
2018-05-03T08:33:50.137Z,59.38
2018-05-03T08:35:00.118Z,59.48
2018-05-03T08:36:09.847Z,58.91
2018-05-03T08:37:19.824Z,58.71
2018-05-03T08:38:29.613Z,58.91
2018-05-03T08:39:39.728Z,58.36
2018-05-03T08:40:49.730Z,58.17
2018-05-03T08:41:59.714Z,58.94
2018-05-03T08:43:09.186Z,56.73
2018-05-03T08:44:18.906Z,56.66
2018-05-03T08:45:28.888Z,56.46
2018-05-03T08:46:38.903Z,55.22
2018-05-03T08:47:48.909Z,54.19
2018-05-03T08:48:58.691Z,54.19
2018-05-03T08:50:08.437Z,53.23
2018-05-03T08:51:18.451Z,53.7
2018-05-03T08:52:28.473Z,52.77
2018-05-03T08:53:38.194Z,52.29
2018-05-03T08:54:48.199Z,51.72
2018-05-03T08:55:57.936Z,51.72
2018-05-03T08:57:07.944Z,51.62
2018-05-03T08:58:17.949Z,50.37
2018-05-03T08:59:27.969Z,50.76
2018-05-03T09:00:37.973Z,50.46
2018-05-03T09:01:47.813Z,49.99
2018-05-03T09:02:58.608Z,49.82
2018-05-03T09:04:08.631Z,50.27
2018-05-03T09:05:18.648Z,50.46
2018-05-03T09:06:28.644Z,50.76
2018-05-03T09:07:38.711Z,50.76
2018-05-03T09:08:48.920Z,50.85
2018-05-03T09:09:59.205Z,49.89
2018-05-03T09:11:09.214Z,50.76
2018-05-03T09:12:19.219Z,49.89
2018-05-03T09:13:29.210Z,49.99
2018-05-03T09:14:39.277Z,49.89
2018-05-03T09:15:49.008Z,50.76
2018-05-03T09:16:59.045Z,49.6
2018-05-03T09:18:09.065Z,49.82
2018-05-03T09:19:18.540Z,49.63
2018-05-03T09:20:28.453Z,48.66
2018-05-03T09:21:37.694Z,50.13
2018-05-03T09:22:47.434Z,47.24
2018-05-03T09:23:57.452Z,48.11
2018-05-03T09:25:07.456Z,47.72
2018-05-03T09:26:17.449Z,47.82
2018-05-03T09:27:27.441Z,47.24
2018-05-03T09:28:37.167Z,46.88
2018-05-03T09:29:47.149Z,47.19
2018-05-03T09:30:56.944Z,45.36
2018-05-03T09:32:06.930Z,45.27
2018-05-03T09:33:16.645Z,45.36
2018-05-03T09:34:26.441Z,45.07
2018-05-03T09:35:36.435Z,45.65
2018-05-03T09:36:46.425Z,44.42
2018-05-03T09:37:56.155Z,45.1
2018-05-03T09:39:06.241Z,44.42
2018-05-03T09:40:16.565Z,43.38
2018-05-03T09:41:26.287Z,43.87
2018-05-03T09:42:36.022Z,44.54
2018-05-03T09:43:46.023Z,45.2
2018-05-03T09:44:56.049Z,46.04
2018-05-03T09:46:06.050Z,46.81
2018-05-03T09:47:15.773Z,46.91
2018-05-03T09:48:25.632Z,46.62
2018-05-03T09:49:35.383Z,46.04
2018-05-03T09:50:45.128Z,45.84
2018-05-03T09:51:55.129Z,45.75
2018-05-03T09:53:04.617Z,45.36
2018-05-03T09:54:14.603Z,44.23
2018-05-03T09:55:24.635Z,44.45
2018-05-03T09:56:34.380Z,44.45
2018-05-03T09:57:44.388Z,44.73
2018-05-03T09:58:54.457Z,45.58
2018-05-03T10:00:04.505Z,45
2018-05-03T10:01:14.747Z,44.35
2018-05-03T10:02:24.742Z,44.32
2018-05-03T10:03:34.756Z,44.81
2018-05-03T10:04:44.895Z,45.48
2018-05-03T10:05:54.936Z,45.75
2018-05-03T10:07:04.945Z,46.33
2018-05-03T10:08:14.707Z,46.42
2018-05-03T10:09:24.686Z,45.87
2018-05-03T10:10:34.678Z,45.6
2018-05-03T10:11:44.684Z,45.21
2018-05-03T10:12:54.689Z,45.89
2018-05-03T10:14:04.431Z,45.68
2018-05-03T10:15:14.429Z,45.31
2018-05-03T10:16:24.196Z,45.43
2018-05-03T10:17:34.199Z,44.76
2018-05-03T10:18:43.956Z,44.97
2018-05-03T10:19:53.969Z,44.85
2018-05-03T10:21:03.961Z,46.76
2018-05-03T10:22:13.706Z,46.83
2018-05-03T10:23:23.174Z,46.73
2018-05-03T10:24:33.192Z,47.31
2018-05-03T10:25:43.190Z,47.99
2018-05-03T10:26:52.959Z,45.89
2018-05-03T10:28:02.949Z,45.7
2018-05-03T10:29:12.675Z,44.46
2018-05-03T10:30:22.858Z,43.43
2018-05-03T10:31:32.817Z,42.39
2018-05-03T10:32:42.303Z,42.39
2018-05-03T10:33:52.042Z,42.1
2018-05-03T10:35:02.029Z,42
2018-05-03T10:36:12.421Z,42.29
2018-05-03T10:37:22.399Z,42.56
2018-05-03T10:38:32.404Z,42.94
2018-05-03T10:39:42.158Z,44.01
2018-05-03T10:40:52.145Z,43.14
2018-05-03T10:42:02.361Z,42.46
2018-05-03T10:43:12.912Z,42.46
2018-05-03T10:44:22.910Z,42.12
2018-05-03T10:45:32.917Z,40.38
2018-05-03T10:46:42.911Z,41.13
2018-05-03T10:47:52.650Z,41.78
2018-05-03T10:49:02.793Z,41.98
2018-05-03T10:50:12.834Z,41.88
2018-05-03T10:51:22.861Z,41.71
2018-05-03T10:52:32.852Z,41.81
2018-05-03T10:53:42.582Z,42
2018-05-03T10:54:52.319Z,40.38
2018-05-03T10:56:01.787Z,39.99
2018-05-03T10:57:11.526Z,40.2
2018-05-03T10:58:21.524Z,39.43
2018-05-03T10:59:31.529Z,39.24
2018-05-03T11:00:41.521Z,39.61
2018-05-03T11:01:51.559Z,39.14
2018-05-03T11:03:01.588Z,38.46
2018-05-03T11:04:11.672Z,39.14
2018-05-03T11:05:21.781Z,38.85
2018-05-03T11:06:32.003Z,39.32
2018-05-03T11:07:42.010Z,40.45
2018-05-03T11:08:51.816Z,39.7
2018-05-03T11:10:01.296Z,39.51
2018-05-03T11:11:11.112Z,38.35
2018-05-03T11:12:21.359Z,39.61
2018-05-03T11:13:31.103Z,39.24
2018-05-03T11:14:40.832Z,39.34
2018-05-03T11:15:50.834Z,38.1
2018-05-03T11:17:00.814Z,36.96
2018-05-03T11:18:10.923Z,37.34
2018-05-03T11:19:20.651Z,36.96
2018-05-03T11:20:30.637Z,36.49
2018-05-03T11:21:40.619Z,36.51
2018-05-03T11:22:50.611Z,36.2
2018-05-03T11:24:00.628Z,36.6
2018-05-03T11:25:10.644Z,36.49
2018-05-03T11:26:20.705Z,37.15
2018-05-03T11:27:30.690Z,37.44
2018-05-03T11:28:40.499Z,37.34
2018-05-03T11:29:50.126Z,36.68
2018-05-03T11:31:00.153Z,36.68
2018-05-03T11:32:09.921Z,37.63
2018-05-03T11:33:19.914Z,38.78
2018-05-03T11:34:29.912Z,39.43
2018-05-03T11:35:39.908Z,40.09
2018-05-03T11:36:50.109Z,40.36
2018-05-03T11:38:00.541Z,40.26
2018-05-03T11:39:10.270Z,40.45
2018-05-03T11:40:20.017Z,40.84
2018-05-03T11:41:30.014Z,39.59
2018-05-03T11:42:40.100Z,39.32
2018-05-03T11:43:50.335Z,39.29
2018-05-03T11:45:00.323Z,39.29
2018-05-03T11:46:10.304Z,39.39
2018-05-03T11:47:20.047Z,40.44
2018-05-03T11:48:30.073Z,40.9
2018-05-03T11:49:40.069Z,42.25
2018-05-03T11:50:50.060Z,42.52
2018-05-03T11:51:59.782Z,43.58
2018-05-03T11:53:09.521Z,43.46
2018-05-03T11:54:18.991Z,43.55
2018-05-03T11:55:28.982Z,43.27
2018-05-03T11:56:39.069Z,42.59
2018-05-03T11:57:48.818Z,42.61
2018-05-03T11:58:58.801Z,43.19
2018-05-03T12:00:08.846Z,43.46
2018-05-03T12:01:18.836Z,43.85
2018-05-03T12:02:29.030Z,42.69
2018-05-03T12:03:39.566Z,43.55
2018-05-03T12:04:49.048Z,42.11
2018-05-03T12:05:59.145Z,41.84
2018-05-03T12:07:09.195Z,42.13
2018-05-03T12:08:18.926Z,41.94
2018-05-03T12:09:28.930Z,40.99
2018-05-03T12:10:38.965Z,40.44
2018-05-03T12:11:49.223Z,40.72
2018-05-03T12:12:59.383Z,40.92
2018-05-03T12:14:09.372Z,41.02
2018-05-03T12:15:19.387Z,41.88
2018-05-03T12:16:29.397Z,41.28
2018-05-03T12:17:39.405Z,42.25
2018-05-03T12:18:49.409Z,42.52
2018-05-03T12:19:59.397Z,43
2018-05-03T12:21:09.119Z,44.64
2018-05-03T12:22:19.122Z,45.56
2018-05-03T12:23:28.841Z,45.75
2018-05-03T12:24:38.817Z,45.56
2018-05-03T12:25:48.801Z,45.1
2018-05-03T12:26:58.831Z,44.9
2018-05-03T12:28:08.825Z,44.45
2018-05-03T12:29:18.547Z,43.89
2018-05-03T12:30:28.282Z,43.21
2018-05-03T12:31:37.763Z,43.14
2018-05-03T12:32:47.745Z,42.56
2018-05-03T12:33:57.740Z,42.36
2018-05-03T12:35:07.746Z,40.55
2018-05-03T12:36:17.747Z,41.69
2018-05-03T12:37:27.735Z,40.82
2018-05-03T12:38:37.474Z,40.72
2018-05-03T12:39:47.190Z,40.92
2018-05-03T12:40:56.937Z,40.7
2018-05-03T12:42:06.680Z,40.51
2018-05-03T12:43:16.681Z,40.9
2018-05-03T12:44:26.761Z,41.67
2018-05-03T12:45:36.743Z,40.99
2018-05-03T12:46:46.744Z,41.19
2018-05-03T12:47:56.744Z,41.78
2018-05-03T12:49:06.463Z,42.15
2018-05-03T12:50:16.459Z,42.56
2018-05-03T12:51:26.188Z,42.73
2018-05-03T12:52:35.920Z,42.44
2018-05-03T12:53:45.917Z,42.66
2018-05-03T12:54:55.676Z,42.08
2018-05-03T12:56:05.705Z,41.15
2018-05-03T12:57:15.716Z,40.96
2018-05-03T12:58:25.707Z,40.01
2018-05-03T12:59:35.708Z,39.45
2018-05-03T13:00:45.820Z,39.55
2018-05-03T13:01:55.664Z,39.74
2018-05-03T13:03:05.399Z,39.53
2018-05-03T13:04:15.405Z,39.53
2018-05-03T13:05:25.155Z,40.47
2018-05-03T13:06:35.182Z,40.47
2018-05-03T13:07:45.179Z,39.72
2018-05-03T13:08:55.167Z,39.34
2018-05-03T13:10:05.205Z,39.64
2018-05-03T13:11:15.186Z,40.01
2018-05-03T13:12:25.173Z,40.57
2018-05-03T13:13:34.666Z,40.4
2018-05-03T13:14:44.412Z,40.61
2018-05-03T13:15:54.139Z,38.41
2018-05-03T13:17:03.857Z,38.33
2018-05-03T13:18:13.844Z,37.26
2018-05-03T13:19:24.065Z,37.94
2018-05-03T13:20:33.801Z,38.41
2018-05-03T13:21:43.798Z,37.24
2018-05-03T13:22:53.797Z,37.44
2018-05-03T13:24:03.816Z,38.5
2018-05-03T13:25:13.801Z,38.78
2018-05-03T13:26:23.799Z,39.82
2018-05-03T13:27:33.777Z,40.45
2018-05-03T13:28:43.757Z,40.55
2018-05-03T13:29:53.746Z,40.45
2018-05-03T13:31:03.550Z,40.17
2018-05-03T13:32:13.281Z,40.65
2018-05-03T13:33:23.280Z,40.84
2018-05-03T13:34:33.395Z,41.13
2018-05-03T13:35:43.603Z,41.91
2018-05-03T13:36:53.591Z,42.18
2018-05-03T13:38:03.331Z,41.98
2018-05-03T13:39:13.340Z,41.69
2018-05-03T13:40:23.146Z,41.3
2018-05-03T13:41:33.156Z,41.13
2018-05-03T13:42:43.152Z,39.87
2018-05-03T13:43:53.155Z,38.64
2018-05-03T13:45:03.150Z,38.35
2018-05-03T13:46:12.616Z,37.98
2018-05-03T13:47:22.636Z,37.12
2018-05-03T13:48:32.880Z,37.7
2018-05-03T13:49:42.881Z,38.35
2018-05-03T13:50:52.881Z,38.71
2018-05-03T13:52:02.870Z,39.49
2018-05-03T13:53:12.852Z,39.32
2018-05-03T13:54:22.374Z,38.93
2018-05-03T13:55:32.153Z,39.12
2018-05-03T13:56:42.008Z,39.29
2018-05-03T13:57:52.011Z,39.32
2018-05-03T13:59:01.998Z,38.35
2018-05-03T14:00:12.011Z,38.46
2018-05-03T14:01:21.997Z,37.38
2018-05-03T14:02:32.003Z,37.96
2018-05-03T14:03:41.465Z,38.35
2018-05-03T14:04:51.470Z,38.45
2018-05-03T14:06:01.453Z,38.64
2018-05-03T14:07:11.311Z,38.74
2018-05-03T14:08:21.780Z,38.54
2018-05-03T14:09:31.765Z,38.54
2018-05-03T14:10:41.240Z,39.12
2018-05-03T14:11:51.229Z,38.54
2018-05-03T14:13:01.430Z,38.35
2018-05-03T14:14:11.601Z,38.28
2018-05-03T14:15:21.625Z,38.66
2018-05-03T14:16:31.595Z,38.74
2018-05-03T14:17:41.604Z,38.74
2018-05-03T14:18:51.341Z,38.71
2018-05-03T14:20:01.332Z,41.11
2018-05-03T14:21:11.441Z,41.96
2018-05-03T14:22:21.520Z,41.98
2018-05-03T14:23:31.249Z,41.78
2018-05-03T14:24:41.243Z,41.11
2018-05-03T14:25:51.238Z,41.6
2018-05-03T14:27:00.968Z,40.92
2018-05-03T14:28:11.136Z,39.69
2018-05-03T14:29:21.281Z,39.03
2018-05-03T14:30:31.258Z,38.68
2018-05-03T14:31:41.243Z,38.5
2018-05-03T14:32:51.238Z,37.44
2018-05-03T14:34:01.240Z,37.82
2018-05-03T14:35:11.233Z,37.32
2018-05-03T14:36:21.233Z,36.55
2018-05-03T14:37:30.968Z,37.04
2018-05-03T14:38:41.033Z,37.12
2018-05-03T14:39:51.096Z,38.35
2018-05-03T14:41:01.098Z,39.29
2018-05-03T14:42:10.839Z,39.86
2018-05-03T14:43:20.565Z,41.2
2018-05-03T14:44:30.311Z,40.7
2018-05-03T14:45:40.097Z,39.18
2018-05-03T14:46:50.098Z,38.7
2018-05-03T14:48:00.093Z,38.21
2018-05-03T14:49:10.083Z,38.41
2018-05-03T14:50:19.805Z,38.79
2018-05-03T14:51:29.802Z,37.65
2018-05-03T14:52:39.793Z,37.1
2018-05-03T14:53:49.297Z,37.77
2018-05-03T14:54:59.304Z,38.04
2018-05-03T14:56:09.347Z,38.14
2018-05-03T14:57:19.406Z,38.7
2018-05-03T14:58:29.138Z,39.09
2018-05-03T14:59:39.133Z,38.99
2018-05-03T15:00:48.603Z,38.71
2018-05-03T15:01:58.701Z,37.77
2018-05-03T15:03:08.701Z,37.79